Time;durP1;ratioP1;P1;durP2;ratioP2;P2;SDS_P1;SDS_P2;PMS_P1;PMS_P2;Temp;Humidity;BMP_temperature;BMP_pressure;BME280_temperature;BME280_humidity;BME280_pressure;Samples;Min_cycle;Max_cycle;Signal;HPM_P1;HPM_P2
2022/05/11 00:00:25;;;;;;;59.07;3.00;;;;;;;;;;5071281;28;21095;-75
2022/05/11 00:02:52;;;;;;;60.20;3.10;;;;;;;;;;5071267;28;20528;-75
2022/05/11 00:05:20;;;;;;;62.57;5.70;;;;;;;;;;5071543;28;20445;-75
2022/05/11 00:07:48;;;;;;;59.97;3.90;;;;;;;;;;5072602;28;20482;-75
2022/05/11 00:10:15;;;;;;;59.33;3.10;;;;;;;;;;5075194;28;20502;-75
2022/05/11 00:12:43;;;;;;;59.73;3.27;;;;;;;;;;5075315;28;20455;-75
2022/05/11 00:15:11;;;;;;;60.00;3.13;;;;;;;;;;5075112;28;20445;-75
2022/05/11 00:17:38;;;;;;;60.27;4.10;;;;;;;;;;5074761;28;20532;-75
2022/05/11 00:20:07;;;;;;;59.33;3.00;;;;;;;;;;5071312;28;20482;-74
2022/05/11 00:22:36;;;;;;;59.70;3.73;;;;;;;;;;5075371;28;20448;-76
2022/05/11 00:25:03;;;;;;;60.47;3.87;;;;;;;;;;5074970;28;20460;-75
2022/05/11 00:27:31;;;;;;;59.07;3.10;;;;;;;;;;5074322;28;20481;-75
2022/05/11 00:29:58;;;;;;;59.30;3.00;;;;;;;;;;5074881;28;20474;-75
2022/05/11 00:32:26;;;;;;;59.17;3.07;;;;;;;;;;5075032;28;20544;-75
2022/05/11 00:34:53;;;;;;;59.23;3.20;;;;;;;;;;5074913;28;20507;-75
2022/05/11 00:37:20;;;;;;;59.50;3.60;;;;;;;;;;5074216;28;20536;-75
2022/05/11 00:39:49;;;;;;;59.70;3.20;;;;;;;;;;5074703;28;20484;-76
2022/05/11 00:42:16;;;;;;;59.90;3.73;;;;;;;;;;5074453;28;20483;-75
2022/05/11 00:44:43;;;;;;;59.17;3.37;;;;;;;;;;5075010;28;20793;-75
2022/05/11 00:47:12;;;;;;;59.40;3.40;;;;;;;;;;5074014;28;20537;-75
2022/05/11 00:49:40;;;;;;;60.20;4.20;;;;;;;;;;5074705;28;20468;-75
2022/05/11 00:52:10;;;;;;;59.27;3.00;;;;;;;;;;5073485;28;20871;-75
2022/05/11 00:54:40;;;;;;;61.03;4.37;;;;;;;;;;5074115;28;20543;-75
2022/05/11 00:57:20;;;;;;;59.30;3.40;;;;;;;;;;5074100;28;20443;-74
2022/05/11 00:59:49;;;;;;;63.50;5.57;;;;;;;;;;5074482;28;20562;-75
2022/05/11 01:02:16;;;;;;;59.63;3.30;;;;;;;;;;5074554;28;20455;-75
2022/05/11 01:04:44;;;;;;;59.07;3.00;;;;;;;;;;5074552;28;20463;-75
2022/05/11 01:07:13;;;;;;;59.97;3.57;;;;;;;;;;5073752;28;20946;-75
2022/05/11 01:09:40;;;;;;;59.37;3.00;;;;;;;;;;5074322;28;20562;-76
2022/05/11 01:12:12;;;;;;;61.20;3.10;;;;;;;;;;5074321;28;20947;-75
2022/05/11 01:14:40;;;;;;;59.17;3.10;;;;;;;;;;5074285;28;20512;-75
2022/05/11 01:17:08;;;;;;;59.20;3.10;;;;;;;;;;5073958;28;20451;-75
2022/05/11 01:19:37;;;;;;;59.03;3.07;;;;;;;;;;5073544;28;20500;-75
2022/05/11 01:22:10;;;;;;;60.27;3.93;;;;;;;;;;5074101;28;20519;-75
2022/05/11 01:24:40;;;;;;;61.80;4.40;;;;;;;;;;5074337;28;20888;-75
2022/05/11 01:27:28;;;;;;;59.50;3.43;;;;;;;;;;5073892;28;20847;-75
2022/05/11 01:29:55;;;;;;;59.03;3.10;;;;;;;;;;5074130;28;20499;-75
2022/05/11 01:32:23;;;;;;;61.37;3.73;;;;;;;;;;5073813;28;20542;-75
2022/05/11 01:34:52;;;;;;;59.23;3.40;;;;;;;;;;5074219;28;20525;-75
2022/05/11 01:37:20;;;;;;;59.77;3.90;;;;;;;;;;5073620;28;20893;-75
2022/05/11 01:39:48;;;;;;;59.57;3.13;;;;;;;;;;5073779;28;20476;-75
2022/05/11 01:42:15;;;;;;;59.60;3.77;;;;;;;;;;5073725;28;20485;-75
2022/05/11 01:44:43;;;;;;;59.47;3.87;;;;;;;;;;5073677;28;20530;-76
2022/05/11 01:47:10;;;;;;;60.00;3.87;;;;;;;;;;5072906;28;20548;-75
2022/05/11 01:49:37;;;;;;;59.77;3.77;;;;;;;;;;5070623;28;20479;-75
2022/05/11 01:52:05;;;;;;;60.47;3.47;;;;;;;;;;5073516;28;20483;-75
2022/05/11 01:54:32;;;;;;;60.00;3.90;;;;;;;;;;5073473;28;20539;-75
2022/05/11 01:57:01;;;;;;;59.50;3.20;;;;;;;;;;5073558;28;20792;-75
2022/05/11 01:59:28;;;;;;;59.07;3.20;;;;;;;;;;5073253;28;20453;-75
2022/05/11 02:01:55;;;;;;;59.20;3.47;;;;;;;;;;5073367;28;20530;-75
2022/05/11 02:09:52;;;;;;;60.40;3.70;;;;;;;;;;5073147;28;20443;-75
2022/05/11 02:12:20;;;;;;;59.50;3.53;;;;;;;;;;5073028;28;20447;-75
2022/05/11 02:14:48;;;;;;;58.80;3.07;;;;;;;;;;5073373;28;20452;-75
2022/05/11 02:17:15;;;;;;;59.03;2.90;;;;;;;;;;5072501;28;20452;-75
2022/05/11 02:19:42;;;;;;;59.07;2.77;;;;;;;;;;5073099;28;20521;-75
2022/05/11 02:22:09;;;;;;;59.20;3.20;;;;;;;;;;5073303;28;20473;-75
2022/05/11 02:24:37;;;;;;;60.23;3.33;;;;;;;;;;5072958;28;20451;-76
2022/05/11 02:27:05;;;;;;;59.13;3.27;;;;;;;;;;5073055;28;20576;-75
2022/05/11 02:29:33;;;;;;;59.23;3.10;;;;;;;;;;5072579;28;20505;-75
2022/05/11 02:32:02;;;;;;;59.07;3.20;;;;;;;;;;5072024;28;20740;-75
2022/05/11 02:37:14;;;;;;;59.03;3.10;;;;;;;;;;5072059;28;20539;-75
2022/05/11 02:39:41;;;;;;;61.70;5.00;;;;;;;;;;5072516;28;20505;-75
2022/05/11 02:42:09;;;;;;;59.13;3.20;;;;;;;;;;5072786;28;20885;-75
2022/05/11 02:44:37;;;;;;;59.70;3.27;;;;;;;;;;5072583;28;20447;-75
2022/05/11 02:47:05;;;;;;;60.37;4.23;;;;;;;;;;5072505;28;20459;-75
2022/05/11 02:49:32;;;;;;;62.33;3.60;;;;;;;;;;5071975;28;20534;-75
2022/05/11 02:51:59;;;;;;;59.33;3.47;;;;;;;;;;5072639;28;20888;-75
2022/05/11 02:54:26;;;;;;;61.83;3.40;;;;;;;;;;5072352;28;20537;-75
2022/05/11 02:56:53;;;;;;;60.00;3.73;;;;;;;;;;5072742;28;20542;-75
2022/05/11 02:59:20;;;;;;;59.00;2.90;;;;;;;;;;5071625;28;20847;-75
2022/05/11 03:01:51;;;;;;;59.07;2.87;;;;;;;;;;5071955;28;20454;-75
2022/05/11 03:04:19;;;;;;;58.77;2.70;;;;;;;;;;5072120;28;20538;-75
2022/05/11 03:06:47;;;;;;;59.10;2.80;;;;;;;;;;5072119;28;20542;-75
2022/05/11 03:09:15;;;;;;;60.30;2.80;;;;;;;;;;5071207;28;21034;-75
2022/05/11 03:11:42;;;;;;;59.37;3.30;;;;;;;;;;5072086;28;20447;-75
2022/05/11 03:14:09;;;;;;;59.47;3.03;;;;;;;;;;5072099;28;20470;-75
2022/05/11 03:16:37;;;;;;;59.10;3.27;;;;;;;;;;5072050;28;20475;-75
2022/05/11 03:19:06;;;;;;;59.47;4.10;;;;;;;;;;5071269;28;20455;-75
2022/05/11 03:21:33;;;;;;;59.50;3.53;;;;;;;;;;5072112;28;20574;-75
2022/05/11 03:24:00;;;;;;;60.73;3.93;;;;;;;;;;5071911;28;21022;-75
2022/05/11 03:26:28;;;;;;;59.70;3.57;;;;;;;;;;5072038;28;20543;-75
2022/05/11 03:28:56;;;;;;;58.80;2.90;;;;;;;;;;5071307;28;20540;-76
2022/05/11 03:31:23;;;;;;;59.40;3.20;;;;;;;;;;5071720;28;20529;-76
2022/05/11 03:36:37;;;;;;;59.67;3.20;;;;;;;;;;5071869;28;20454;-75
2022/05/11 03:39:04;;;;;;;59.80;3.57;;;;;;;;;;5070967;28;20456;-75
2022/05/11 03:41:31;;;;;;;59.03;2.90;;;;;;;;;;5071595;28;20497;-75
2022/05/11 03:43:58;;;;;;;59.17;3.03;;;;;;;;;;5071513;28;20457;-75
2022/05/11 03:46:26;;;;;;;59.80;3.80;;;;;;;;;;5071952;28;20443;-75
2022/05/11 03:48:53;;;;;;;59.00;2.87;;;;;;;;;;5071096;28;20912;-76
2022/05/11 03:51:20;;;;;;;58.97;3.33;;;;;;;;;;5071703;28;20477;-75
2022/05/11 03:53:49;;;;;;;59.50;3.20;;;;;;;;;;5071507;28;20457;-75
2022/05/11 03:56:18;;;;;;;59.30;3.47;;;;;;;;;;5071612;28;21003;-75
2022/05/11 03:58:45;;;;;;;58.87;2.87;;;;;;;;;;5070901;28;20924;-75
2022/05/11 04:01:12;;;;;;;59.07;2.70;;;;;;;;;;5071684;28;20553;-75
2022/05/11 04:03:39;;;;;;;59.30;3.30;;;;;;;;;;5071686;28;20836;-75
2022/05/11 04:06:06;;;;;;;58.97;2.60;;;;;;;;;;5071640;28;20461;-75
2022/05/11 04:08:34;;;;;;;59.20;3.27;;;;;;;;;;5071187;28;20490;-75
2022/05/11 04:11:02;;;;;;;59.23;3.23;;;;;;;;;;5070954;28;20839;-75
2022/05/11 04:13:30;;;;;;;59.27;3.30;;;;;;;;;;5071330;28;20451;-76
2022/05/11 04:15:57;;;;;;;58.70;2.87;;;;;;;;;;5071690;28;20452;-75
2022/05/11 04:18:24;;;;;;;60.00;3.53;;;;;;;;;;5070892;28;20447;-75
2022/05/11 04:20:51;;;;;;;59.37;3.07;;;;;;;;;;5071413;28;20900;-75
2022/05/11 04:23:18;;;;;;;59.30;2.90;;;;;;;;;;5071296;28;20448;-75
2022/05/11 04:25:45;;;;;;;59.20;4.10;;;;;;;;;;5071367;28;20487;-75
2022/05/11 04:28:14;;;;;;;59.70;3.77;;;;;;;;;;5070740;28;20483;-75
2022/05/11 04:30:41;;;;;;;60.40;5.00;;;;;;;;;;5071357;28;20469;-75
2022/05/11 04:33:09;;;;;;;60.77;4.87;;;;;;;;;;5071345;28;20496;-75
2022/05/11 04:35:37;;;;;;;60.40;4.90;;;;;;;;;;5071299;28;20448;-75
2022/05/11 04:38:05;;;;;;;62.07;5.47;;;;;;;;;;5070259;28;20454;-76
2022/05/11 04:40:33;;;;;;;60.67;4.50;;;;;;;;;;5071430;28;20471;-75
2022/05/11 04:43:00;;;;;;;61.30;4.63;;;;;;;;;;5071291;28;20459;-75
2022/05/11 04:45:29;;;;;;;61.53;5.07;;;;;;;;;;5071282;28;20455;-75
2022/05/11 04:47:56;;;;;;;60.80;4.67;;;;;;;;;;5070703;28;20482;-75
2022/05/11 04:50:25;;;;;;;60.60;4.70;;;;;;;;;;5070937;28;20561;-75
2022/05/11 04:52:53;;;;;;;61.97;4.90;;;;;;;;;;5071167;28;20487;-75
2022/05/11 04:55:20;;;;;;;61.40;5.70;;;;;;;;;;5073537;28;20965;-75
2022/05/11 04:57:48;;;;;;;63.60;7.90;;;;;;;;;;5074091;28;20448;-75
2022/05/11 05:00:16;;;;;;;63.23;6.70;;;;;;;;;;5074549;28;20482;-75
2022/05/11 05:02:44;;;;;;;60.47;4.90;;;;;;;;;;5074443;28;20451;-75
2022/05/11 05:05:12;;;;;;;67.77;5.40;;;;;;;;;;5074517;28;20614;-75
2022/05/11 05:07:40;;;;;;;63.57;6.83;;;;;;;;;;5073919;28;20451;-75
2022/05/11 05:10:09;;;;;;;64.17;5.70;;;;;;;;;;5074537;28;20471;-75
2022/05/11 05:12:36;;;;;;;59.63;3.80;;;;;;;;;;5074400;28;20538;-75
2022/05/11 05:15:04;;;;;;;61.00;4.23;;;;;;;;;;5074433;28;20534;-75
2022/05/11 05:17:31;;;;;;;60.03;4.43;;;;;;;;;;5073580;28;20560;-75
2022/05/11 05:20:00;;;;;;;61.40;4.47;;;;;;;;;;5074379;28;20559;-76
2022/05/11 05:22:27;;;;;;;59.67;3.60;;;;;;;;;;5074107;28;20447;-76
2022/05/11 05:24:54;;;;;;;60.10;4.13;;;;;;;;;;5074178;28;20535;-75
2022/05/11 05:27:21;;;;;;;59.77;3.73;;;;;;;;;;5073562;28;20455;-75
2022/05/11 05:32:38;;;;;;;59.00;3.47;;;;;;;;;;5074060;28;20423;-75
2022/05/11 05:35:07;;;;;;;60.00;3.50;;;;;;;;;;5074090;28;20460;-75
2022/05/11 05:37:34;;;;;;;59.30;3.30;;;;;;;;;;5073442;28;20451;-75
2022/05/11 05:40:02;;;;;;;59.40;3.70;;;;;;;;;;5073732;28;20474;-76
2022/05/11 05:42:29;;;;;;;59.87;3.53;;;;;;;;;;5074189;28;20448;-75
2022/05/11 05:44:56;;;;;;;60.00;5.10;;;;;;;;;;5073890;28;20454;-75
2022/05/11 05:47:24;;;;;;;60.00;3.27;;;;;;;;;;5073247;28;20444;-75
2022/05/11 05:49:51;;;;;;;60.27;4.03;;;;;;;;;;5073491;28;21088;-75
2022/05/11 05:52:21;;;;;;;59.17;3.73;;;;;;;;;;5073663;28;20450;-75
2022/05/11 05:54:49;;;;;;;60.13;3.57;;;;;;;;;;5073528;28;20545;-75
2022/05/11 05:57:17;;;;;;;59.37;3.30;;;;;;;;;;5072766;28;20819;-75
2022/05/11 05:59:45;;;;;;;59.43;3.40;;;;;;;;;;5073609;28;20460;-75
2022/05/11 06:02:14;;;;;;;59.27;3.63;;;;;;;;;;5073602;28;20453;-75
2022/05/11 06:04:41;;;;;;;59.20;3.67;;;;;;;;;;5073337;28;20453;-75
2022/05/11 06:07:09;;;;;;;59.30;3.47;;;;;;;;;;5072983;28;20449;-75
2022/05/11 06:09:38;;;;;;;59.27;3.77;;;;;;;;;;5073152;28;20487;-75
2022/05/11 06:12:05;;;;;;;60.00;3.53;;;;;;;;;;5073446;28;20851;-75
2022/05/11 06:14:33;;;;;;;59.30;3.17;;;;;;;;;;5073093;28;20959;-75
2022/05/11 06:17:01;;;;;;;59.37;3.23;;;;;;;;;;5073223;28;20455;-76
2022/05/11 06:19:28;;;;;;;59.50;3.67;;;;;;;;;;5072342;28;20450;-75
2022/05/11 06:21:55;;;;;;;59.60;3.63;;;;;;;;;;5073053;28;20529;-75
2022/05/11 06:24:23;;;;;;;59.77;3.50;;;;;;;;;;5073310;28;20454;-76
2022/05/11 06:26:51;;;;;;;59.63;3.50;;;;;;;;;;5073028;28;20540;-76
2022/05/11 06:29:18;;;;;;;59.20;2.97;;;;;;;;;;5072206;28;20486;-76
2022/05/11 06:31:45;;;;;;;59.27;3.30;;;;;;;;;;5072888;28;20534;-76
2022/05/11 06:34:12;;;;;;;59.93;3.90;;;;;;;;;;5073059;28;20468;-75
2022/05/11 06:36:39;;;;;;;59.77;3.53;;;;;;;;;;5072599;28;20457;-75
2022/05/11 06:39:07;;;;;;;59.50;3.53;;;;;;;;;;5071967;28;20952;-75
2022/05/11 06:41:34;;;;;;;58.97;3.80;;;;;;;;;;5072634;28;20506;-76
2022/05/11 06:44:03;;;;;;;59.57;3.90;;;;;;;;;;5072295;28;20967;-76
2022/05/11 06:46:31;;;;;;;59.60;3.93;;;;;;;;;;5072555;28;20458;-76
2022/05/11 06:48:59;;;;;;;59.50;3.20;;;;;;;;;;5072248;28;20480;-76
2022/05/11 06:51:26;;;;;;;60.43;3.60;;;;;;;;;;5072267;28;20471;-75
2022/05/11 06:59:25;;;;;;;58.60;2.80;;;;;;;;;;5071628;28;20422;-77
2022/05/11 07:01:53;;;;;;;59.20;3.37;;;;;;;;;;5071888;28;20482;-76
2022/05/11 07:04:22;;;;;;;59.73;2.60;;;;;;;;;;5071548;28;20535;-75
2022/05/11 07:06:49;;;;;;;59.07;2.80;;;;;;;;;;5071896;28;20447;-76
2022/05/11 07:09:16;;;;;;;59.20;3.17;;;;;;;;;;5071268;28;20858;-76
2022/05/11 07:14:29;;;;;;;59.00;2.97;;;;;;;;;;5072200;28;20999;-76
2022/05/11 07:16:57;;;;;;;59.17;2.80;;;;;;;;;;5073181;28;20451;-76
2022/05/11 07:19:25;;;;;;;59.67;2.87;;;;;;;;;;5070734;28;21023;-76
2022/05/11 07:21:52;;;;;;;60.30;3.07;;;;;;;;;;5072083;28;20607;-76
2022/05/11 07:24:20;;;;;;;60.03;4.77;;;;;;;;;;5071675;28;20452;-76
2022/05/11 07:26:47;;;;;;;59.97;3.30;;;;;;;;;;5071789;28;20453;-76
2022/05/11 07:29:14;;;;;;;58.97;2.83;;;;;;;;;;5071226;28;20514;-76
2022/05/11 07:31:43;;;;;;;62.17;3.20;;;;;;;;;;5071990;28;20453;-78
2022/05/11 07:34:10;;;;;;;58.97;3.30;;;;;;;;;;5071432;28;20450;-76
2022/05/11 07:36:38;;;;;;;58.70;2.77;;;;;;;;;;5071805;28;20444;-76
2022/05/11 07:39:05;;;;;;;59.40;3.10;;;;;;;;;;5070979;28;20979;-76
2022/05/11 07:41:32;;;;;;;58.90;2.70;;;;;;;;;;5071431;28;20551;-77
2022/05/11 07:43:59;;;;;;;59.37;2.73;;;;;;;;;;5071829;28;20549;-77
2022/05/11 07:46:33;;;;;;;59.20;3.20;;;;;;;;;;5071807;28;20488;-76
2022/05/11 07:49:02;;;;;;;58.57;2.80;;;;;;;;;;5070854;28;20478;-76
2022/05/11 07:51:29;;;;;;;58.70;2.90;;;;;;;;;;5071620;28;20499;-76
2022/05/11 07:53:56;;;;;;;59.60;3.50;;;;;;;;;;5071438;28;20479;-76
2022/05/11 08:01:53;;;;;;;59.77;3.87;;;;;;;;;;5071513;28;20801;-77
2022/05/11 08:04:22;;;;;;;58.87;3.00;;;;;;;;;;5070905;28;20550;-77
2022/05/11 08:06:49;;;;;;;59.20;2.97;;;;;;;;;;5071054;28;20486;-77
2022/05/11 08:09:16;;;;;;;59.20;3.00;;;;;;;;;;5070714;28;20475;-77
2022/05/11 08:11:43;;;;;;;61.43;3.60;;;;;;;;;;5071698;28;20458;-78
2022/05/11 08:14:10;;;;;;;59.30;2.97;;;;;;;;;;5071297;28;20449;-76
2022/05/11 08:16:38;;;;;;;59.20;3.33;;;;;;;;;;5071284;28;20932;-78
2022/05/11 08:19:05;;;;;;;58.90;3.20;;;;;;;;;;5070945;28;20443;-77
2022/05/11 08:21:35;;;;;;;58.73;2.90;;;;;;;;;;5071544;28;20542;-77
2022/05/11 08:24:03;;;;;;;58.80;3.10;;;;;;;;;;5071472;28;20466;-79
2022/05/11 08:26:30;;;;;;;59.50;3.03;;;;;;;;;;5072014;28;20460;-78
2022/05/11 08:28:57;;;;;;;58.67;2.83;;;;;;;;;;5071417;28;20506;-77
2022/05/11 08:34:09;;;;;;;59.07;2.80;;;;;;;;;;5075193;28;20496;-78
2022/05/11 08:36:37;;;;;;;59.70;3.20;;;;;;;;;;5075233;28;20948;-78
2022/05/11 08:39:05;;;;;;;59.00;3.20;;;;;;;;;;5074597;28;20881;-78
2022/05/11 08:41:36;;;;;;;59.37;2.83;;;;;;;;;;5075417;28;20467;-78
2022/05/11 08:44:04;;;;;;;59.10;2.60;;;;;;;;;;5075626;28;20454;-78
2022/05/11 08:46:39;;;;;;;59.17;3.10;;;;;;;;;;5077431;28;20534;-79
2022/05/11 08:49:07;;;;;;;58.87;2.73;;;;;;;;;;5078324;28;20570;-79
2022/05/11 08:51:38;;;;;;;59.30;3.33;;;;;;;;;;5076890;28;20476;-79
2022/05/11 08:54:09;;;;;;;59.10;3.07;;;;;;;;;;5075024;28;20538;-78
2022/05/11 08:56:37;;;;;;;59.30;3.10;;;;;;;;;;5077255;28;20953;-79
2022/05/11 08:59:05;;;;;;;58.30;2.40;;;;;;;;;;5075219;28;20459;-78
2022/05/11 09:01:35;;;;;;;59.00;3.17;;;;;;;;;;5075742;28;20463;-76
2022/05/11 09:04:07;;;;;;;58.87;2.80;;;;;;;;;;5074543;28;20483;-77
2022/05/11 09:06:36;;;;;;;58.80;2.93;;;;;;;;;;5075885;28;20461;-79
2022/05/11 09:09:05;;;;;;;58.73;2.80;;;;;;;;;;5073650;28;20482;-78
2022/05/11 09:11:35;;;;;;;58.93;2.93;;;;;;;;;;5075699;28;20503;-79
2022/05/11 09:14:03;;;;;;;59.30;2.50;;;;;;;;;;5074682;28;20657;-77
2022/05/11 09:16:40;;;;;;;58.80;3.17;;;;;;;;;;5074721;28;20485;-78
2022/05/11 09:19:15;;;;;;;58.97;2.93;;;;;;;;;;5073652;28;20527;-79
2022/05/11 09:21:50;;;;;;;58.77;3.00;;;;;;;;;;5075240;28;20478;-79
2022/05/11 09:24:25;;;;;;;59.53;3.57;;;;;;;;;;5076782;28;20514;-77
2022/05/11 09:27:03;;;;;;;58.87;2.77;;;;;;;;;;5074540;28;20827;-77
2022/05/11 09:29:33;;;;;;;58.60;2.60;;;;;;;;;;5073404;28;20486;-79
2022/05/11 09:32:20;;;;;;;58.97;3.07;;;;;;;;;;5074649;28;20946;-79
2022/05/11 09:34:47;;;;;;;58.80;2.50;;;;;;;;;;5074354;28;20474;-77
2022/05/11 09:37:25;;;;;;;58.80;2.80;;;;;;;;;;5074069;28;20509;-79
2022/05/11 09:39:54;;;;;;;60.43;3.73;;;;;;;;;;5073347;28;20507;-79
2022/05/11 09:42:29;;;;;;;58.60;2.80;;;;;;;;;;5074389;28;20486;-79
2022/05/11 09:44:56;;;;;;;58.90;2.60;;;;;;;;;;5074026;28;20447;-76
2022/05/11 09:47:25;;;;;;;58.60;2.90;;;;;;;;;;5073491;28;20450;-77
2022/05/11 09:49:52;;;;;;;58.47;2.53;;;;;;;;;;5074125;28;20487;-77
2022/05/11 09:52:29;;;;;;;58.80;2.83;;;;;;;;;;5073937;28;20530;-79
2022/05/11 09:54:57;;;;;;;58.80;2.40;;;;;;;;;;5074378;28;20443;-79
2022/05/11 09:57:28;;;;;;;58.60;2.70;;;;;;;;;;5073507;28;20479;-78
2022/05/11 09:59:57;;;;;;;59.40;3.30;;;;;;;;;;5073921;28;20854;-78
2022/05/11 10:02:27;;;;;;;59.50;2.93;;;;;;;;;;5068938;28;20501;-74
2022/05/11 10:04:57;;;;;;;58.50;2.47;;;;;;;;;;5069468;28;20882;-75
2022/05/11 10:07:26;;;;;;;58.80;2.80;;;;;;;;;;5072306;28;20447;-75
2022/05/11 10:09:59;;;;;;;58.93;2.87;;;;;;;;;;5072678;28;20866;-75
2022/05/11 10:12:29;;;;;;;59.13;3.00;;;;;;;;;;5072714;28;20824;-73
2022/05/11 10:23:19;;;;;;;58.17;2.63;;;;;;;;;;5072922;28;20888;-74
2022/05/11 10:25:48;;;;;;;58.47;3.00;;;;;;;;;;5072899;28;20447;-73
2022/05/11 10:28:23;;;;;;;58.67;3.20;;;;;;;;;;5072205;28;20518;-73
2022/05/11 10:30:53;;;;;;;58.43;2.83;;;;;;;;;;5072863;28;20486;-73
2022/05/11 10:33:30;;;;;;;58.30;2.80;;;;;;;;;;5072982;28;20455;-74
2022/05/11 10:36:00;;;;;;;59.23;3.73;;;;;;;;;;5070889;28;20534;-73
2022/05/11 10:38:38;;;;;;;58.47;3.40;;;;;;;;;;5071233;28;20459;-74
2022/05/11 10:41:09;;;;;;;58.37;2.80;;;;;;;;;;5072834;28;20463;-72
2022/05/11 10:43:43;;;;;;;58.67;2.73;;;;;;;;;;5072589;28;20447;-72
2022/05/11 10:46:15;;;;;;;58.43;2.90;;;;;;;;;;5072533;28;20455;-77
2022/05/11 10:48:49;;;;;;;58.10;3.00;;;;;;;;;;5071810;28;20486;-77
2022/05/11 10:51:18;;;;;;;58.37;3.17;;;;;;;;;;5072097;28;20879;-75
2022/05/11 10:53:48;;;;;;;57.87;2.80;;;;;;;;;;5072026;28;20539;-73
2022/05/11 10:56:27;;;;;;;58.60;3.47;;;;;;;;;;5076353;28;20454;-75
2022/05/11 10:59:10;;;;;;;57.60;2.20;;;;;;;;;;5071693;28;20494;-75
2022/05/11 11:01:45;;;;;;;57.77;2.40;;;;;;;;;;5039382;28;20521;-73
2022/05/11 11:04:21;;;;;;;58.30;2.80;;;;;;;;;;5072215;28;20451;-75
2022/05/11 11:07:13;;;;;;;58.70;3.10;;;;;;;;;;5072393;28;20446;-77
2022/05/11 11:09:44;;;;;;;59.47;3.40;;;;;;;;;;5072016;28;20483;-76
2022/05/11 11:12:23;;;;;;;58.20;2.53;;;;;;;;;;5072422;28;20469;-74
2022/05/11 11:14:51;;;;;;;58.27;2.90;;;;;;;;;;5072275;28;20450;-73
2022/05/11 11:17:21;;;;;;;58.30;3.00;;;;;;;;;;5071472;28;20451;-72
2022/05/11 11:19:50;;;;;;;59.40;2.47;;;;;;;;;;5071970;28;20520;-75
2022/05/11 11:22:17;;;;;;;57.97;2.50;;;;;;;;;;5071812;28;20543;-76
2022/05/11 11:24:44;;;;;;;58.37;2.50;;;;;;;;;;5072186;28;20526;-75
2022/05/11 11:27:12;;;;;;;58.07;2.43;;;;;;;;;;5071417;28;20451;-74
2022/05/11 11:29:40;;;;;;;58.13;2.63;;;;;;;;;;5071838;28;20502;-76
2022/05/11 11:32:15;;;;;;;58.10;2.57;;;;;;;;;;5071871;28;20451;-73
2022/05/11 11:34:45;;;;;;;59.10;2.60;;;;;;;;;;5071771;28;20530;-76
2022/05/11 11:37:31;;;;;;;57.57;2.17;;;;;;;;;;5071635;28;20444;-76
2022/05/11 11:39:59;;;;;;;57.67;2.30;;;;;;;;;;5071639;28;21086;-74
2022/05/11 11:42:34;;;;;;;57.67;2.60;;;;;;;;;;5071724;28;20462;-74
2022/05/11 11:45:01;;;;;;;58.40;3.00;;;;;;;;;;5071674;28;20504;-73
2022/05/11 11:47:52;;;;;;;57.87;2.57;;;;;;;;;;5071500;28;20538;-73
2022/05/11 11:50:38;;;;;;;58.37;2.90;;;;;;;;;;5056424;28;20565;-74
2022/05/11 11:53:08;;;;;;;58.00;3.00;;;;;;;;;;5071747;28;20884;-74
2022/05/11 11:55:36;;;;;;;58.00;2.67;;;;;;;;;;5071608;28;20565;-75
2022/05/11 11:58:13;;;;;;;57.53;2.30;;;;;;;;;;5071054;28;20516;-73
2022/05/11 12:00:57;;;;;;;58.00;3.03;;;;;;;;;;5071602;28;20463;-76
2022/05/11 12:03:26;;;;;;;59.50;3.60;;;;;;;;;;5072797;28;20543;-76
2022/05/11 12:05:54;;;;;;;58.37;3.33;;;;;;;;;;5075515;28;21030;-74
2022/05/11 12:16:45;;;;;;;58.40;2.90;;;;;;;;;;5075574;28;20532;-75
2022/05/11 12:19:14;;;;;;;57.67;2.20;;;;;;;;;;5074880;28;20457;-74
2022/05/11 12:21:42;;;;;;;57.67;2.60;;;;;;;;;;5075461;28;20542;-74
2022/05/11 12:24:20;;;;;;;58.10;2.57;;;;;;;;;;5075368;28;20447;-74
2022/05/11 12:26:55;;;;;;;57.90;2.50;;;;;;;;;;5075173;28;20469;-76
2022/05/11 12:32:08;;;;;;;58.03;2.43;;;;;;;;;;5075285;28;20422;-75
2022/05/11 12:34:41;;;;;;;57.67;2.50;;;;;;;;;;5074718;28;20451;-76
2022/05/11 12:37:21;;;;;;;57.70;2.40;;;;;;;;;;5074734;28;20442;-75
2022/05/11 12:39:55;;;;;;;57.70;2.30;;;;;;;;;;5075257;28;20561;-75
2022/05/11 12:42:28;;;;;;;57.67;2.40;;;;;;;;;;5075176;28;20819;-75
2022/05/11 12:44:56;;;;;;;57.83;2.33;;;;;;;;;;5074999;28;20447;-74
2022/05/11 12:47:23;;;;;;;57.73;2.70;;;;;;;;;;5074231;28;20443;-74
2022/05/11 12:49:51;;;;;;;57.90;2.80;;;;;;;;;;5074736;28;21008;-75
2022/05/11 12:52:20;;;;;;;58.93;3.00;;;;;;;;;;5074829;28;20538;-74
2022/05/11 12:54:59;;;;;;;57.97;3.07;;;;;;;;;;5075279;28;20542;-75
2022/05/11 12:57:34;;;;;;;57.47;2.10;;;;;;;;;;5074164;28;20479;-75
2022/05/11 13:00:02;;;;;;;59.00;2.67;;;;;;;;;;5074655;28;20829;-75
2022/05/11 13:02:33;;;;;;;58.97;2.77;;;;;;;;;;5074600;28;20451;-73
2022/05/11 13:05:00;;;;;;;58.10;2.87;;;;;;;;;;5077615;28;20459;-74
2022/05/11 13:07:30;;;;;;;57.67;2.30;;;;;;;;;;5074001;28;20546;-77
2022/05/11 13:10:00;;;;;;;57.60;2.00;;;;;;;;;;5074632;28;20463;-77
2022/05/11 13:12:27;;;;;;;57.80;2.27;;;;;;;;;;5074381;28;20479;-78
2022/05/11 13:14:55;;;;;;;57.77;2.50;;;;;;;;;;5073890;28;20458;-77
2022/05/11 13:17:25;;;;;;;57.57;2.20;;;;;;;;;;5073978;28;20496;-77
2022/05/11 13:19:54;;;;;;;57.60;2.60;;;;;;;;;;5074437;28;20554;-79
2022/05/11 13:22:24;;;;;;;57.23;2.20;;;;;;;;;;5074728;28;20883;-76
2022/05/11 13:24:53;;;;;;;57.70;2.50;;;;;;;;;;5074848;28;20451;-77
2022/05/11 13:27:43;;;;;;;57.70;2.50;;;;;;;;;;5073475;28;20469;-76
2022/05/11 13:30:14;;;;;;;58.07;2.67;;;;;;;;;;5070151;28;20483;-76
2022/05/11 13:32:43;;;;;;;57.67;2.50;;;;;;;;;;5074060;28;20539;-76
2022/05/11 13:35:20;;;;;;;58.17;2.70;;;;;;;;;;5074278;28;20486;-76
2022/05/11 13:38:16;;;;;;;57.90;2.50;;;;;;;;;;5073190;28;20534;-76
2022/05/11 13:40:44;;;;;;;57.73;2.60;;;;;;;;;;5074326;28;20994;-75
2022/05/11 13:43:17;;;;;;;57.67;2.20;;;;;;;;;;5074048;28;20486;-75
2022/05/11 13:45:55;;;;;;;58.77;2.60;;;;;;;;;;5073955;28;20455;-75
2022/05/11 13:48:26;;;;;;;59.40;2.37;;;;;;;;;;5073469;28;20443;-76
2022/05/11 13:50:53;;;;;;;57.63;2.10;;;;;;;;;;5073797;28;20490;-76
2022/05/11 13:53:23;;;;;;;58.40;2.30;;;;;;;;;;5073841;28;20538;-76
2022/05/11 13:56:01;;;;;;;57.90;2.40;;;;;;;;;;5073757;28;20535;-74
2022/05/11 13:58:32;;;;;;;57.80;2.70;;;;;;;;;;5072880;28;20449;-76
2022/05/11 14:01:02;;;;;;;57.97;3.03;;;;;;;;;;5073841;28;20882;-77
2022/05/11 14:03:33;;;;;;;58.23;2.80;;;;;;;;;;5073694;28;20538;-77
2022/05/11 14:06:00;;;;;;;57.43;2.50;;;;;;;;;;5073468;28;20451;-75
2022/05/11 14:08:27;;;;;;;57.70;2.23;;;;;;;;;;5072786;28;20452;-74
2022/05/11 14:10:54;;;;;;;58.23;2.50;;;;;;;;;;5072916;28;21007;-75
2022/05/11 14:13:22;;;;;;;57.53;2.13;;;;;;;;;;5073436;28;20448;-76
2022/05/11 14:15:50;;;;;;;57.67;2.30;;;;;;;;;;5073425;28;20554;-76
2022/05/11 14:18:20;;;;;;;57.87;2.30;;;;;;;;;;5072679;28;20448;-76
2022/05/11 14:20:47;;;;;;;57.37;2.10;;;;;;;;;;5073193;28;20467;-76
2022/05/11 14:23:15;;;;;;;58.40;2.87;;;;;;;;;;5073094;28;20534;-76
2022/05/11 14:25:42;;;;;;;58.00;2.77;;;;;;;;;;5073451;28;20538;-76
2022/05/11 14:28:09;;;;;;;57.87;2.50;;;;;;;;;;5072289;28;20450;-77
2022/05/11 14:30:38;;;;;;;58.67;2.67;;;;;;;;;;5072864;28;20495;-74
2022/05/11 14:33:05;;;;;;;58.13;2.73;;;;;;;;;;5072981;28;20447;-75
2022/05/11 14:35:34;;;;;;;57.60;2.30;;;;;;;;;;5073092;28;20468;-74
2022/05/11 14:38:01;;;;;;;58.07;2.60;;;;;;;;;;5071774;28;20534;-74
2022/05/11 14:40:30;;;;;;;58.00;2.60;;;;;;;;;;5072875;28;20494;-75
2022/05/11 14:42:57;;;;;;;57.73;2.13;;;;;;;;;;5072851;28;20451;-74
2022/05/11 14:45:24;;;;;;;57.77;2.50;;;;;;;;;;5073554;28;21046;-74
2022/05/11 14:47:56;;;;;;;58.60;2.50;;;;;;;;;;5071932;28;21014;-74
2022/05/11 14:50:24;;;;;;;58.40;2.63;;;;;;;;;;5072479;28;20887;-75
2022/05/11 14:52:55;;;;;;;58.27;2.67;;;;;;;;;;5072659;28;20450;-75
2022/05/11 14:55:22;;;;;;;57.97;2.30;;;;;;;;;;5072764;28;20447;-74
2022/05/11 15:03:20;;;;;;;57.83;2.60;;;;;;;;;;5072523;28;20421;-74
2022/05/11 15:05:47;;;;;;;58.60;2.63;;;;;;;;;;5072565;28;20452;-74
2022/05/11 15:08:16;;;;;;;59.10;3.40;;;;;;;;;;5071741;28;20832;-74
2022/05/11 15:10:43;;;;;;;58.97;2.93;;;;;;;;;;5072191;28;20470;-75
2022/05/11 15:13:31;;;;;;;60.30;2.33;;;;;;;;;;5072202;28;20454;-74
2022/05/11 15:15:58;;;;;;;58.27;2.70;;;;;;;;;;5072424;28;20570;-74
2022/05/11 15:18:26;;;;;;;57.77;2.23;;;;;;;;;;5071448;28;20542;-74
2022/05/11 15:20:53;;;;;;;58.17;2.43;;;;;;;;;;5072325;28;20869;-75
2022/05/11 15:23:22;;;;;;;58.90;2.63;;;;;;;;;;5071984;28;20457;-74
2022/05/11 15:25:49;;;;;;;57.97;2.27;;;;;;;;;;5072004;28;20530;-74
2022/05/11 15:28:16;;;;;;;58.07;2.57;;;;;;;;;;5071273;28;20936;-74
2022/05/11 15:30:45;;;;;;;58.27;2.60;;;;;;;;;;5072010;28;20499;-75
2022/05/11 15:33:12;;;;;;;58.47;2.90;;;;;;;;;;5071825;28;20451;-74
2022/05/11 15:35:39;;;;;;;58.20;2.50;;;;;;;;;;5072317;28;20457;-74
2022/05/11 15:38:07;;;;;;;58.20;2.70;;;;;;;;;;5070517;28;20494;-74